Terminal Aerodrome Forecast
Issued by NWS Topeka, KS

Home | Current Version | Previous Version | Text Only | Print | Product List | Glossary Off
Versions: 1 2 3 4 5 6 7 8 9 10 11 12 13 14 15 16 17 18 19 20 21 22 23

000
FTUS43 KTOP 020520
TAFTOP
TAF
KTOP 020520Z 0206/0306 04006KT P6SM BKN035
     FM021100 05004KT 4SM BR BKN020
      TEMPO 0211/0214 BKN009
     FM021800 03008KT P6SM BKN035=

USA.gov is the U.S. government's official web portal to all federal, state and local government web resources and services.